Time;durP1;ratioP1;P1;durP2;ratioP2;P2;SDS_P1;SDS_P2;PMS_P1;PMS_P2;Temp;Humidity;BMP_temperature;BMP_pressure;BME280_temperature;BME280_humidity;BME280_pressure;Samples;Min_cycle;Max_cycle;Signal;HPM_P1;HPM_P2
2022/08/30 00:02:55;;;;;;;26.45;15.60;;;;;;;;;;1749189;81;21040;-60
2022/08/30 00:05:22;;;;;;;22.20;15.83;;;;;;;;;;1750983;82;21508;-60
2022/08/30 00:07:49;;;;;;;30.15;15.68;;;;;;;;;;1753103;81;21023;-60
2022/08/30 00:10:18;;;;;;;28.02;16.10;;;;;;;;;;1749310;81;21492;-61
2022/08/30 00:12:47;;;;;;;30.40;16.27;;;;;;;;;;1748447;81;21035;-60
2022/08/30 00:15:15;;;;;;;25.32;15.55;;;;;;;;;;1751803;81;21012;-60
2022/08/30 00:17:43;;;;;;;27.40;15.75;;;;;;;;;;1750499;81;22243;-60
2022/08/30 00:20:12;;;;;;;26.27;16.20;;;;;;;;;;1748331;81;21039;-60
2022/08/30 00:22:40;;;;;;;27.27;16.15;;;;;;;;;;1751532;81;20992;-60
2022/08/30 00:25:08;;;;;;;25.17;15.78;;;;;;;;;;1750229;81;21539;-60
2022/08/30 00:27:36;;;;;;;29.27;16.87;;;;;;;;;;1751389;81;21087;-60
2022/08/30 00:30:05;;;;;;;26.95;16.32;;;;;;;;;;1747530;81;20997;-60
2022/08/30 00:32:32;;;;;;;25.85;16.30;;;;;;;;;;1746512;82;21008;-60
2022/08/30 00:34:59;;;;;;;28.32;16.20;;;;;;;;;;1744718;81;21067;-60
2022/08/30 00:37:26;;;;;;;27.05;16.15;;;;;;;;;;1746536;81;21079;-60
2022/08/30 00:39:53;;;;;;;25.37;15.20;;;;;;;;;;1748649;81;21098;-61
2022/08/30 00:42:20;;;;;;;28.95;15.18;;;;;;;;;;1748768;80;21031;-60
2022/08/30 00:44:49;;;;;;;25.37;15.45;;;;;;;;;;1751713;82;20993;-59
2022/08/30 00:47:17;;;;;;;27.20;16.42;;;;;;;;;;1752909;81;21552;-60
2022/08/30 00:49:49;;;;;;;25.15;15.50;;;;;;;;;;1750614;81;21035;-60
2022/08/30 00:52:17;;;;;;;24.12;16.00;;;;;;;;;;1735263;82;21008;-60
2022/08/30 00:54:45;;;;;;;23.70;15.40;;;;;;;;;;1748051;82;21509;-60
2022/08/30 00:57:13;;;;;;;22.80;14.65;;;;;;;;;;1743987;81;20968;-60
2022/08/30 00:59:42;;;;;;;24.27;14.70;;;;;;;;;;1744249;81;21027;-60
2022/08/30 01:02:09;;;;;;;25.05;14.78;;;;;;;;;;1747871;82;21035;-60
2022/08/30 01:04:39;;;;;;;25.30;14.98;;;;;;;;;;1749015;82;21028;-60
2022/08/30 01:07:07;;;;;;;22.48;14.63;;;;;;;;;;1747068;81;21024;-60
2022/08/30 01:09:36;;;;;;;19.65;14.68;;;;;;;;;;1750965;81;21062;-60
2022/08/30 01:12:03;;;;;;;23.95;16.30;;;;;;;;;;1749622;82;21485;-60
2022/08/30 01:14:32;;;;;;;25.08;16.17;;;;;;;;;;1751781;81;21040;-60
2022/08/30 01:17:00;;;;;;;25.65;16.17;;;;;;;;;;1746526;81;21130;-60
2022/08/30 01:19:37;;;;;;;26.10;16.00;;;;;;;;;;1747161;81;21064;-60
2022/08/30 01:22:10;;;;;;;25.25;15.50;;;;;;;;;;1740480;82;21547;-60
2022/08/30 01:24:37;;;;;;;24.37;15.23;;;;;;;;;;1703218;81;21052;-60
2022/08/30 01:27:04;;;;;;;25.10;14.83;;;;;;;;;;1746796;81;21496;-60
2022/08/30 01:29:33;;;;;;;22.98;15.30;;;;;;;;;;1752449;81;21028;-60
2022/08/30 01:32:00;;;;;;;23.15;15.45;;;;;;;;;;1741449;81;21028;-60
2022/08/30 01:34:27;;;;;;;25.75;15.20;;;;;;;;;;1749392;81;21004;-60
2022/08/30 01:36:54;;;;;;;23.55;15.65;;;;;;;;;;1750970;82;21044;-60
2022/08/30 01:39:21;;;;;;;21.25;15.40;;;;;;;;;;1748618;81;21514;-60
2022/08/30 01:41:48;;;;;;;24.52;13.80;;;;;;;;;;1749852;81;21536;-60
2022/08/30 01:44:15;;;;;;;22.50;14.30;;;;;;;;;;1748219;81;21027;-60
2022/08/30 01:46:45;;;;;;;22.25;14.30;;;;;;;;;;1757138;81;21024;-60
2022/08/30 01:49:14;;;;;;;23.67;14.60;;;;;;;;;;1733985;81;21055;-60
2022/08/30 01:51:41;;;;;;;21.48;12.98;;;;;;;;;;1737764;81;21147;-60
2022/08/30 01:54:08;;;;;;;22.50;13.48;;;;;;;;;;1746206;81;21040;-60
2022/08/30 01:56:35;;;;;;;22.82;14.23;;;;;;;;;;1750042;81;21059;-60
2022/08/30 01:59:03;;;;;;;28.32;15.80;;;;;;;;;;1750111;81;21019;-60
2022/08/30 02:01:31;;;;;;;21.80;14.75;;;;;;;;;;1752631;81;21044;-60
2022/08/30 02:03:58;;;;;;;27.20;15.43;;;;;;;;;;1743585;81;21072;-60
2022/08/30 02:06:25;;;;;;;29.05;15.18;;;;;;;;;;1753095;81;21121;-60
2022/08/30 02:08:52;;;;;;;22.05;14.60;;;;;;;;;;1751013;81;21059;-61
2022/08/30 02:11:19;;;;;;;27.37;15.50;;;;;;;;;;1750949;81;21150;-60
2022/08/30 02:13:46;;;;;;;24.65;15.68;;;;;;;;;;1749663;81;21048;-60
2022/08/30 02:16:15;;;;;;;25.02;14.93;;;;;;;;;;1746469;81;21044;-60
2022/08/30 02:18:43;;;;;;;29.72;17.45;;;;;;;;;;1748532;81;20996;-60
2022/08/30 02:21:11;;;;;;;31.65;17.12;;;;;;;;;;1749850;81;21048;-60
2022/08/30 02:23:38;;;;;;;25.82;16.07;;;;;;;;;;1754008;81;21032;-60
2022/08/30 02:26:06;;;;;;;28.62;15.58;;;;;;;;;;1753135;81;21059;-60
2022/08/30 02:28:33;;;;;;;24.60;15.70;;;;;;;;;;1750376;81;21025;-60
2022/08/30 02:31:01;;;;;;;28.02;15.68;;;;;;;;;;1750125;81;21025;-60
2022/08/30 02:33:27;;;;;;;23.85;15.08;;;;;;;;;;1749330;81;21152;-59
2022/08/30 02:35:55;;;;;;;22.85;14.07;;;;;;;;;;1745883;81;21058;-60
2022/08/30 02:38:22;;;;;;;21.52;14.25;;;;;;;;;;1747566;82;21019;-60
2022/08/30 02:40:50;;;;;;;20.65;14.63;;;;;;;;;;1748252;81;21078;-60
2022/08/30 02:43:17;;;;;;;21.02;13.75;;;;;;;;;;1743454;81;21040;-60
2022/08/30 02:45:43;;;;;;;23.57;14.15;;;;;;;;;;1751468;81;21054;-60
2022/08/30 02:48:10;;;;;;;23.98;14.40;;;;;;;;;;1749760;81;21064;-60
2022/08/30 02:50:42;;;;;;;21.00;14.93;;;;;;;;;;1747364;81;21035;-60
2022/08/30 02:53:10;;;;;;;24.85;15.40;;;;;;;;;;1748342;81;21000;-61
2022/08/30 02:55:36;;;;;;;25.45;14.85;;;;;;;;;;1745524;81;20989;-60
2022/08/30 02:58:04;;;;;;;28.23;15.85;;;;;;;;;;1749314;82;21036;-60
2022/08/30 03:00:32;;;;;;;22.32;15.28;;;;;;;;;;1746926;81;20984;-60
2022/08/30 03:03:02;;;;;;;27.60;15.95;;;;;;;;;;1750928;80;21051;-60
2022/08/30 03:05:29;;;;;;;28.45;16.70;;;;;;;;;;1751197;81;21596;-61
2022/08/30 03:07:55;;;;;;;23.60;16.37;;;;;;;;;;1743254;81;21044;-60
2022/08/30 03:10:22;;;;;;;25.25;16.67;;;;;;;;;;1745561;81;21024;-60
2022/08/30 03:12:50;;;;;;;29.55;16.42;;;;;;;;;;1747125;81;21091;-60
2022/08/30 03:15:17;;;;;;;23.95;15.80;;;;;;;;;;1748832;81;21011;-61
2022/08/30 03:17:44;;;;;;;25.00;15.68;;;;;;;;;;1748064;81;21088;-60
2022/08/30 03:20:11;;;;;;;28.50;15.03;;;;;;;;;;1742140;81;21000;-60
2022/08/30 03:22:38;;;;;;;22.60;14.50;;;;;;;;;;1742866;81;21086;-60
2022/08/30 03:25:07;;;;;;;25.25;13.98;;;;;;;;;;1747862;81;21583;-60
2022/08/30 03:27:33;;;;;;;21.57;12.65;;;;;;;;;;1744897;81;21054;-60
2022/08/30 03:30:00;;;;;;;22.02;13.48;;;;;;;;;;1742254;81;20999;-60
2022/08/30 03:32:27;;;;;;;17.55;12.53;;;;;;;;;;1748554;81;21058;-60
2022/08/30 03:34:54;;;;;;;21.60;12.85;;;;;;;;;;1745636;81;21062;-60
2022/08/30 03:37:21;;;;;;;18.90;12.33;;;;;;;;;;1746866;81;21062;-60
2022/08/30 03:39:48;;;;;;;21.93;12.23;;;;;;;;;;1745224;81;21027;-61
2022/08/30 03:42:15;;;;;;;19.57;12.20;;;;;;;;;;1746240;81;21028;-60
2022/08/30 03:44:42;;;;;;;21.73;13.00;;;;;;;;;;1748560;81;21070;-60
2022/08/30 03:47:09;;;;;;;24.75;13.90;;;;;;;;;;1750374;81;21492;-60
2022/08/30 03:49:36;;;;;;;20.55;13.65;;;;;;;;;;1747797;81;21036;-60
2022/08/30 03:52:04;;;;;;;23.30;14.93;;;;;;;;;;1746861;81;21035;-60
2022/08/30 03:54:32;;;;;;;27.17;16.32;;;;;;;;;;1748335;81;21087;-60
2022/08/30 03:56:59;;;;;;;26.23;15.65;;;;;;;;;;1744508;81;21123;-59
2022/08/30 03:59:26;;;;;;;27.95;16.17;;;;;;;;;;1744258;81;21074;-60
2022/08/30 04:01:53;;;;;;;22.25;15.48;;;;;;;;;;1752743;81;21020;-60
2022/08/30 04:04:20;;;;;;;29.82;16.32;;;;;;;;;;1750396;81;21532;-60
2022/08/30 04:06:48;;;;;;;22.50;15.93;;;;;;;;;;1746550;81;21680;-60
2022/08/30 04:09:14;;;;;;;29.12;16.48;;;;;;;;;;1746332;81;20976;-60
2022/08/30 04:11:42;;;;;;;25.52;17.20;;;;;;;;;;1747932;81;21083;-60
2022/08/30 04:14:09;;;;;;;26.45;16.40;;;;;;;;;;1752541;82;21563;-60
2022/08/30 04:16:36;;;;;;;28.65;16.50;;;;;;;;;;1750626;81;21019;-60
2022/08/30 04:19:03;;;;;;;25.15;16.77;;;;;;;;;;1750745;81;21056;-59
2022/08/30 04:21:29;;;;;;;30.97;16.32;;;;;;;;;;1751008;82;21539;-59
2022/08/30 04:23:57;;;;;;;34.63;17.50;;;;;;;;;;1748321;81;21039;-59
2022/08/30 04:26:23;;;;;;;25.68;16.17;;;;;;;;;;1755230;81;21036;-60
2022/08/30 04:28:50;;;;;;;28.83;16.10;;;;;;;;;;1753620;81;21020;-61
2022/08/30 04:31:18;;;;;;;26.57;16.45;;;;;;;;;;1745825;81;21537;-60
2022/08/30 04:33:46;;;;;;;27.25;16.40;;;;;;;;;;1742711;81;21083;-60
2022/08/30 04:36:13;;;;;;;28.55;16.52;;;;;;;;;;1748218;82;21526;-60
2022/08/30 04:38:41;;;;;;;25.95;16.00;;;;;;;;;;1750786;81;20993;-61
2022/08/30 04:41:11;;;;;;;25.32;16.15;;;;;;;;;;1749798;81;21028;-60
2022/08/30 04:43:38;;;;;;;27.70;16.10;;;;;;;;;;1744067;81;21031;-60
2022/08/30 04:46:07;;;;;;;26.25;15.90;;;;;;;;;;1746683;81;21164;-60
2022/08/30 04:48:35;;;;;;;29.05;16.70;;;;;;;;;;1749913;81;21539;-60
2022/08/30 04:51:07;;;;;;;33.13;16.45;;;;;;;;;;1748102;81;21000;-60
2022/08/30 04:53:34;;;;;;;27.32;15.80;;;;;;;;;;1750204;81;20993;-60
2022/08/30 04:56:03;;;;;;;26.75;16.27;;;;;;;;;;1744567;81;20988;-60
2022/08/30 04:58:30;;;;;;;33.20;15.43;;;;;;;;;;1752096;81;21088;-61
2022/08/30 05:00:58;;;;;;;30.27;16.15;;;;;;;;;;1749060;82;21060;-61
2022/08/30 05:03:24;;;;;;;24.82;15.80;;;;;;;;;;1750222;82;21028;-61
2022/08/30 05:05:51;;;;;;;28.10;16.25;;;;;;;;;;1744641;81;21021;-61
2022/08/30 05:08:20;;;;;;;24.23;15.50;;;;;;;;;;1748494;81;21035;-63
2022/08/30 05:10:50;;;;;;;23.15;15.38;;;;;;;;;;1749055;81;20972;-61
2022/08/30 05:13:19;;;;;;;28.60;15.88;;;;;;;;;;1751856;82;21019;-60
2022/08/30 05:15:46;;;;;;;24.02;15.40;;;;;;;;;;1743467;81;21001;-60
2022/08/30 05:18:15;;;;;;;32.35;16.45;;;;;;;;;;1746075;81;21083;-61
2022/08/30 05:20:43;;;;;;;31.60;17.12;;;;;;;;;;1746254;81;21204;-60
2022/08/30 05:23:10;;;;;;;30.92;16.10;;;;;;;;;;1748998;81;21555;-61
2022/08/30 05:25:38;;;;;;;29.80;16.37;;;;;;;;;;1746160;81;21027;-60
2022/08/30 05:28:05;;;;;;;33.58;16.60;;;;;;;;;;1746802;81;21034;-61
2022/08/30 05:30:34;;;;;;;31.40;16.73;;;;;;;;;;1745846;81;21000;-60
2022/08/30 05:33:02;;;;;;;36.77;16.35;;;;;;;;;;1748463;81;21044;-60
2022/08/30 05:35:28;;;;;;;35.70;16.23;;;;;;;;;;1751130;81;21106;-61
2022/08/30 05:37:56;;;;;;;35.38;16.40;;;;;;;;;;1751137;81;21043;-60
2022/08/30 05:40:23;;;;;;;33.40;14.65;;;;;;;;;;1749445;81;21087;-60
2022/08/30 05:42:50;;;;;;;31.48;15.35;;;;;;;;;;1748174;81;21048;-59
2022/08/30 05:45:17;;;;;;;29.23;15.53;;;;;;;;;;1749678;81;21067;-61
2022/08/30 05:47:46;;;;;;;33.85;15.25;;;;;;;;;;1747698;81;20997;-60
2022/08/30 05:50:13;;;;;;;29.55;14.33;;;;;;;;;;1748806;81;21024;-60
2022/08/30 05:52:42;;;;;;;26.65;14.20;;;;;;;;;;1752316;81;21035;-60
2022/08/30 05:55:10;;;;;;;26.95;14.23;;;;;;;;;;1748424;81;21015;-60
2022/08/30 05:57:38;;;;;;;27.17;14.18;;;;;;;;;;1747983;81;21468;-60
2022/08/30 06:00:08;;;;;;;24.23;12.88;;;;;;;;;;1752791;81;21044;-62
2022/08/30 06:02:38;;;;;;;31.77;13.70;;;;;;;;;;1711543;83;21047;-60
2022/08/30 06:05:06;;;;;;;31.60;13.03;;;;;;;;;;1751880;81;21071;-60
2022/08/30 06:07:33;;;;;;;31.25;12.45;;;;;;;;;;1750213;81;21070;-60
2022/08/30 06:10:00;;;;;;;26.65;13.15;;;;;;;;;;1753566;81;21094;-60
2022/08/30 06:12:27;;;;;;;31.33;12.40;;;;;;;;;;1750596;81;21513;-60
2022/08/30 06:14:54;;;;;;;36.17;13.28;;;;;;;;;;1752457;81;21027;-61
2022/08/30 06:17:21;;;;;;;26.02;12.07;;;;;;;;;;1748364;81;20996;-59
2022/08/30 06:19:47;;;;;;;26.60;11.97;;;;;;;;;;1750117;81;21056;-60
2022/08/30 06:22:14;;;;;;;34.78;12.73;;;;;;;;;;1749692;81;21083;-60
2022/08/30 06:24:41;;;;;;;25.40;12.88;;;;;;;;;;1750626;81;20993;-60
2022/08/30 06:27:08;;;;;;;26.70;12.33;;;;;;;;;;1748586;82;21021;-61
2022/08/30 06:29:36;;;;;;;26.75;12.75;;;;;;;;;;1747905;81;21071;-60
2022/08/30 06:32:03;;;;;;;36.70;13.83;;;;;;;;;;1749730;81;21071;-61
2022/08/30 06:34:30;;;;;;;35.10;12.70;;;;;;;;;;1750140;81;21055;-60
2022/08/30 06:36:57;;;;;;;25.62;12.18;;;;;;;;;;1748731;81;21056;-60
2022/08/30 06:39:24;;;;;;;27.27;12.82;;;;;;;;;;1750589;82;21504;-61
2022/08/30 06:41:50;;;;;;;27.67;12.55;;;;;;;;;;1748951;81;21095;-61
2022/08/30 06:44:19;;;;;;;22.70;12.15;;;;;;;;;;1749263;81;21106;-61
2022/08/30 06:46:46;;;;;;;24.25;11.78;;;;;;;;;;1749696;81;21556;-62
2022/08/30 06:49:13;;;;;;;25.88;11.65;;;;;;;;;;1749964;81;21118;-61
2022/08/30 06:51:41;;;;;;;24.47;11.60;;;;;;;;;;1747050;81;21107;-61
2022/08/30 06:54:09;;;;;;;25.02;11.73;;;;;;;;;;1746013;81;21087;-61
2022/08/30 06:56:36;;;;;;;24.40;11.38;;;;;;;;;;1747265;81;21056;-60
2022/08/30 06:59:03;;;;;;;22.67;10.35;;;;;;;;;;1746743;81;21043;-60
2022/08/30 07:01:31;;;;;;;28.95;10.90;;;;;;;;;;1748793;81;21016;-60
2022/08/30 07:03:59;;;;;;;24.40;11.03;;;;;;;;;;1754386;81;21520;-60
2022/08/30 07:06:27;;;;;;;25.10;10.90;;;;;;;;;;1749226;81;21590;-60
2022/08/30 07:08:54;;;;;;;23.70;10.58;;;;;;;;;;1750884;81;21484;-60
2022/08/30 07:11:27;;;;;;;23.62;10.38;;;;;;;;;;1750548;82;21064;-60
2022/08/30 07:13:56;;;;;;;19.82;9.53;;;;;;;;;;1748247;81;21032;-61
2022/08/30 07:16:23;;;;;;;20.97;9.80;;;;;;;;;;1740914;81;21067;-61
2022/08/30 07:18:50;;;;;;;19.02;9.70;;;;;;;;;;1744378;81;21094;-60
2022/08/30 07:21:20;;;;;;;17.42;9.73;;;;;;;;;;1750768;81;21106;-61
2022/08/30 07:23:51;;;;;;;21.55;9.00;;;;;;;;;;1748666;81;21531;-61
2022/08/30 07:26:19;;;;;;;19.50;8.70;;;;;;;;;;1753640;81;21056;-61
2022/08/30 07:28:47;;;;;;;24.43;9.18;;;;;;;;;;1751372;81;21516;-61
2022/08/30 07:31:16;;;;;;;17.92;8.30;;;;;;;;;;1748042;81;21099;-61
2022/08/30 07:33:43;;;;;;;22.52;9.53;;;;;;;;;;1752240;81;21082;-61
2022/08/30 07:36:10;;;;;;;18.57;8.90;;;;;;;;;;1751403;80;21518;-61
2022/08/30 07:38:37;;;;;;;16.15;7.92;;;;;;;;;;1749914;81;21087;-61
2022/08/30 08:00:36;;;;;;;16.52;7.28;;;;;;;;;;1850423;77;22574;-60
2022/08/30 08:03:07;;;;;;;23.05;7.95;;;;;;;;;;1801049;79;20991;-61
2022/08/30 08:05:41;;;;;;;17.65;8.15;;;;;;;;;;1792287;79;21078;-60
2022/08/30 08:08:09;;;;;;;17.55;7.58;;;;;;;;;;1785324;79;20988;-60
2022/08/30 08:10:39;;;;;;;13.78;7.42;;;;;;;;;;1803151;79;21090;-60
2022/08/30 08:13:06;;;;;;;18.17;7.17;;;;;;;;;;1799034;79;21059;-60
2022/08/30 08:15:33;;;;;;;16.95;7.40;;;;;;;;;;1797757;79;21474;-60
2022/08/30 08:18:00;;;;;;;15.80;7.12;;;;;;;;;;1780806;79;21023;-60
2022/08/30 08:20:27;;;;;;;22.98;7.33;;;;;;;;;;1788555;79;21535;-60
2022/08/30 08:22:55;;;;;;;13.28;7.37;;;;;;;;;;1785803;79;21165;-60
2022/08/30 08:25:22;;;;;;;17.48;11.12;;;;;;;;;;1788338;79;21016;-62
2022/08/30 08:27:50;;;;;;;31.93;19.30;;;;;;;;;;1792264;79;21070;-61
2022/08/30 08:30:19;;;;;;;16.90;8.58;;;;;;;;;;1784164;79;21060;-60
2022/08/30 08:32:46;;;;;;;14.83;7.95;;;;;;;;;;1793245;79;21057;-61
2022/08/30 08:35:14;;;;;;;19.77;7.20;;;;;;;;;;1789001;79;21522;-61
2022/08/30 08:37:41;;;;;;;23.02;7.87;;;;;;;;;;1795240;79;21064;-60
2022/08/30 08:40:12;;;;;;;20.35;7.58;;;;;;;;;;1786247;79;21508;-60
2022/08/30 08:43:00;;;;;;;14.87;6.97;;;;;;;;;;1789363;79;21066;-61
2022/08/30 08:45:33;;;;;;;16.97;7.67;;;;;;;;;;1793484;79;21555;-61
2022/08/30 08:48:12;;;;;;;13.62;7.03;;;;;;;;;;1785966;79;21027;-60
2022/08/30 08:53:33;;;;;;;16.87;7.58;;;;;;;;;;1783100;79;21031;-60
2022/08/30 08:55:59;;;;;;;23.47;8.00;;;;;;;;;;1784503;79;21064;-61
2022/08/30 08:58:28;;;;;;;13.15;7.90;;;;;;;;;;1782706;79;21118;-60
2022/08/30 09:00:56;;;;;;;19.27;7.37;;;;;;;;;;1753797;81;21051;-61
2022/08/30 09:03:27;;;;;;;16.15;8.30;;;;;;;;;;1753613;81;21077;-60
2022/08/30 09:05:56;;;;;;;14.28;7.50;;;;;;;;;;1753069;81;21629;-60
2022/08/30 09:08:23;;;;;;;17.12;7.67;;;;;;;;;;1753541;81;21061;-60
2022/08/30 09:11:03;;;;;;;17.75;7.20;;;;;;;;;;1753887;81;21019;-60
2022/08/30 09:13:30;;;;;;;11.55;7.15;;;;;;;;;;1737870;82;21483;-61
2022/08/30 09:15:58;;;;;;;14.47;7.58;;;;;;;;;;1765618;80;21617;-60
2022/08/30 09:18:45;;;;;;;21.55;7.87;;;;;;;;;;1753223;81;21121;-60
2022/08/30 09:21:13;;;;;;;15.45;8.20;;;;;;;;;;1754597;80;21038;-60
2022/08/30 09:23:48;;;;;;;14.60;7.28;;;;;;;;;;1749108;81;20987;-60
2022/08/30 09:26:19;;;;;;;19.35;7.87;;;;;;;;;;1751854;81;21076;-60
2022/08/30 09:28:48;;;;;;;13.70;7.70;;;;;;;;;;1761292;80;21051;-60
2022/08/30 09:31:22;;;;;;;18.20;7.62;;;;;;;;;;1755531;81;21022;-61
2022/08/30 09:34:07;;;;;;;15.48;7.28;;;;;;;;;;1748452;80;21044;-61
2022/08/30 09:36:48;;;;;;;15.93;7.65;;;;;;;;;;1755440;80;21074;-60
2022/08/30 09:39:29;;;;;;;12.45;7.45;;;;;;;;;;1752482;81;21159;-60
2022/08/30 09:42:17;;;;;;;18.92;7.95;;;;;;;;;;1731823;81;21298;-60
2022/08/30 09:44:44;;;;;;;20.45;8.13;;;;;;;;;;1752144;81;21093;-61
2022/08/30 09:47:24;;;;;;;13.43;7.45;;;;;;;;;;1755846;80;21589;-60
2022/08/30 09:50:10;;;;;;;16.10;7.78;;;;;;;;;;1729925;81;21015;-61
2022/08/30 09:53:10;;;;;;;15.93;7.80;;;;;;;;;;1766762;80;21024;-61
2022/08/30 09:55:48;;;;;;;14.58;7.53;;;;;;;;;;1761017;80;21130;-60
2022/08/30 09:58:54;;;;;;;17.27;7.62;;;;;;;;;;1744605;81;21115;-60
2022/08/30 10:01:29;;;;;;;16.90;7.60;;;;;;;;;;1761781;80;21562;-60
2022/08/30 10:04:00;;;;;;;15.18;7.50;;;;;;;;;;1748878;81;21020;-60
2022/08/30 10:06:51;;;;;;;20.77;7.60;;;;;;;;;;1758539;80;21019;-61
2022/08/30 10:09:40;;;;;;;24.82;8.63;;;;;;;;;;1756431;80;21048;-60
2022/08/30 10:12:32;;;;;;;21.73;9.68;;;;;;;;;;1753773;81;21424;-61
2022/08/30 10:15:11;;;;;;;28.05;10.30;;;;;;;;;;1751895;79;21051;-60
2022/08/30 10:17:42;;;;;;;20.25;9.40;;;;;;;;;;1754144;81;21109;-60
2022/08/30 10:20:12;;;;;;;17.25;8.73;;;;;;;;;;1756332;80;21058;-60
2022/08/30 10:23:01;;;;;;;22.48;9.38;;;;;;;;;;1753078;81;21016;-60
2022/08/30 10:25:34;;;;;;;15.78;9.38;;;;;;;;;;1748624;80;21036;-61
2022/08/30 10:28:20;;;;;;;19.30;8.83;;;;;;;;;;1749619;81;21069;-61
2022/08/30 10:30:50;;;;;;;19.10;9.33;;;;;;;;;;1732739;81;21027;-60
2022/08/30 10:33:29;;;;;;;24.65;8.78;;;;;;;;;;1752420;80;21554;-60
2022/08/30 10:35:58;;;;;;;18.32;9.20;;;;;;;;;;1748507;81;21011;-61
2022/08/30 10:38:28;;;;;;;53.40;12.65;;;;;;;;;;1763876;80;21011;-60
2022/08/30 10:41:14;;;;;;;23.67;9.55;;;;;;;;;;1758831;80;21101;-60
2022/08/30 10:43:47;;;;;;;22.48;9.95;;;;;;;;;;1747886;81;21042;-60
2022/08/30 10:46:20;;;;;;;17.23;9.95;;;;;;;;;;1767032;80;21019;-61
2022/08/30 10:48:48;;;;;;;27.65;10.30;;;;;;;;;;1748737;80;21522;-61
2022/08/30 10:51:21;;;;;;;21.10;9.95;;;;;;;;;;1753966;81;21038;-61
2022/08/30 10:53:54;;;;;;;22.13;10.38;;;;;;;;;;1758158;80;21039;-60
2022/08/30 10:56:25;;;;;;;25.27;10.55;;;;;;;;;;1752066;81;21146;-60
2022/08/30 10:58:53;;;;;;;28.32;11.12;;;;;;;;;;1750983;80;21070;-61
2022/08/30 11:01:36;;;;;;;21.25;9.95;;;;;;;;;;1757920;80;21031;-61
2022/08/30 11:04:06;;;;;;;17.40;10.17;;;;;;;;;;1757775;81;21068;-60
2022/08/30 11:06:43;;;;;;;23.27;10.93;;;;;;;;;;1750856;81;21070;-61
2022/08/30 11:09:42;;;;;;;25.37;10.68;;;;;;;;;;1751843;80;21061;-60
2022/08/30 11:12:29;;;;;;;22.13;10.23;;;;;;;;;;1749334;81;21530;-60
2022/08/30 11:14:59;;;;;;;23.22;10.03;;;;;;;;;;1748326;81;21033;-60
2022/08/30 11:17:35;;;;;;;23.85;10.00;;;;;;;;;;1763670;80;20987;-61
2022/08/30 11:20:04;;;;;;;21.75;10.15;;;;;;;;;;1754797;80;21030;-61
2022/08/30 11:22:34;;;;;;;19.90;9.95;;;;;;;;;;1749112;81;21070;-61
2022/08/30 11:25:13;;;;;;;21.23;9.68;;;;;;;;;;1757155;81;21034;-61
2022/08/30 11:27:52;;;;;;;23.00;9.95;;;;;;;;;;1749530;81;21027;-60
2022/08/30 11:30:29;;;;;;;16.82;9.90;;;;;;;;;;1760044;81;21535;-60
2022/08/30 11:33:05;;;;;;;20.32;9.13;;;;;;;;;;1764202;80;21484;-61
2022/08/30 11:35:44;;;;;;;21.27;10.45;;;;;;;;;;1750645;81;21101;-61
2022/08/30 11:38:26;;;;;;;21.23;10.30;;;;;;;;;;1759492;80;21602;-60
2022/08/30 11:40:59;;;;;;;22.32;10.48;;;;;;;;;;1762555;81;21071;-61
2022/08/30 11:43:39;;;;;;;23.35;10.82;;;;;;;;;;1762118;80;21078;-61
2022/08/30 11:46:16;;;;;;;24.02;10.15;;;;;;;;;;1758713;80;21054;-60
2022/08/30 11:49:07;;;;;;;22.42;10.72;;;;;;;;;;1771993;81;21027;-61
2022/08/30 11:51:40;;;;;;;21.27;9.98;;;;;;;;;;1757875;80;21075;-60
2022/08/30 11:54:29;;;;;;;20.92;10.05;;;;;;;;;;1738300;81;21039;-60
2022/08/30 11:57:16;;;;;;;20.72;9.90;;;;;;;;;;1753457;80;21027;-61
2022/08/30 12:00:02;;;;;;;20.17;10.50;;;;;;;;;;1678296;83;21165;-61
2022/08/30 12:02:47;;;;;;;24.05;10.03;;;;;;;;;;1747103;81;21588;-61
2022/08/30 12:05:37;;;;;;;23.98;10.20;;;;;;;;;;1755716;81;21027;-61
2022/08/30 12:08:30;;;;;;;20.20;10.03;;;;;;;;;;1757695;80;21050;-60
2022/08/30 12:11:01;;;;;;;23.15;10.35;;;;;;;;;;1754878;80;21028;-60
2022/08/30 12:13:37;;;;;;;21.35;10.35;;;;;;;;;;1755830;80;21062;-61
2022/08/30 12:16:11;;;;;;;18.07;10.08;;;;;;;;;;1764216;79;21032;-61
2022/08/30 12:18:47;;;;;;;22.75;9.45;;;;;;;;;;1746214;81;21590;-60
2022/08/30 12:21:24;;;;;;;23.62;10.03;;;;;;;;;;1734930;82;21045;-62
2022/08/30 12:24:12;;;;;;;21.62;8.95;;;;;;;;;;1736201;81;21025;-61
2022/08/30 12:26:42;;;;;;;13.68;9.13;;;;;;;;;;1755211;81;21054;-61
2022/08/30 12:29:22;;;;;;;19.05;9.28;;;;;;;;;;1735407;83;21051;-60
2022/08/30 12:31:56;;;;;;;18.07;9.35;;;;;;;;;;1759094;81;21063;-60
2022/08/30 12:34:32;;;;;;;20.80;8.93;;;;;;;;;;1734237;83;21016;-60
2022/08/30 12:37:22;;;;;;;26.42;10.20;;;;;;;;;;1746859;81;21101;-61
2022/08/30 12:40:09;;;;;;;23.42;9.60;;;;;;;;;;1735083;81;21040;-60
2022/08/30 12:42:43;;;;;;;21.45;9.68;;;;;;;;;;1735120;83;21045;-60
2022/08/30 12:45:14;;;;;;;15.78;8.98;;;;;;;;;;1734796;83;21012;-61
2022/08/30 12:47:47;;;;;;;23.73;10.10;;;;;;;;;;1735212;82;20989;-60
2022/08/30 12:50:18;;;;;;;19.35;9.48;;;;;;;;;;1740917;81;21064;-60
2022/08/30 12:52:48;;;;;;;19.57;9.98;;;;;;;;;;1739205;81;21088;-60
2022/08/30 12:55:20;;;;;;;21.17;10.08;;;;;;;;;;1740621;81;21025;-62
2022/08/30 12:58:06;;;;;;;13.85;8.25;;;;;;;;;;1740557;81;21040;-60
2022/08/30 13:00:36;;;;;;;19.27;9.43;;;;;;;;;;1744867;81;21071;-60
2022/08/30 13:03:23;;;;;;;19.05;9.90;;;;;;;;;;1751786;81;21075;-61
2022/08/30 13:05:51;;;;;;;25.65;9.88;;;;;;;;;;1735322;83;21006;-60
2022/08/30 13:08:21;;;;;;;17.62;9.50;;;;;;;;;;1735282;83;21527;-60
2022/08/30 13:10:57;;;;;;;17.77;8.73;;;;;;;;;;1747401;81;21092;-60
2022/08/30 13:13:33;;;;;;;18.80;8.05;;;;;;;;;;1750805;81;21027;-60
2022/08/30 13:16:21;;;;;;;21.70;9.00;;;;;;;;;;1740426;81;21112;-61
2022/08/30 13:18:51;;;;;;;20.82;8.48;;;;;;;;;;1735276;83;21064;-60
2022/08/30 13:21:24;;;;;;;17.37;8.63;;;;;;;;;;1735275;82;21051;-61
2022/08/30 13:23:55;;;;;;;20.25;9.00;;;;;;;;;;1735283;81;21024;-61
2022/08/30 13:26:23;;;;;;;18.23;8.48;;;;;;;;;;1734522;82;21084;-61
2022/08/30 13:28:54;;;;;;;21.20;9.80;;;;;;;;;;1750966;81;21036;-61
2022/08/30 13:31:21;;;;;;;20.37;9.05;;;;;;;;;;1735303;82;21509;-62
2022/08/30 13:33:51;;;;;;;21.57;9.35;;;;;;;;;;1735391;83;21059;-61
2022/08/30 13:36:17;;;;;;;16.82;9.25;;;;;;;;;;1735140;82;21048;-60
2022/08/30 13:38:44;;;;;;;14.93;9.10;;;;;;;;;;1744702;79;21437;-61
2022/08/30 13:41:10;;;;;;;14.13;8.40;;;;;;;;;;1740521;81;21054;-61
2022/08/30 13:43:37;;;;;;;19.17;8.93;;;;;;;;;;1709061;82;21043;-61
2022/08/30 13:46:04;;;;;;;16.60;8.85;;;;;;;;;;1721160;82;21035;-61
2022/08/30 13:48:31;;;;;;;17.65;9.50;;;;;;;;;;1719925;82;21058;-61
2022/08/30 13:50:59;;;;;;;19.45;8.60;;;;;;;;;;1724989;82;21043;-62
2022/08/30 13:53:26;;;;;;;15.50;8.85;;;;;;;;;;1719700;82;21498;-61
2022/08/30 13:55:53;;;;;;;18.52;9.18;;;;;;;;;;1724189;82;21050;-61
2022/08/30 13:58:20;;;;;;;17.42;9.55;;;;;;;;;;1712301;82;21094;-61
2022/08/30 14:00:47;;;;;;;18.73;9.18;;;;;;;;;;1724351;82;21565;-61
2022/08/30 14:03:15;;;;;;;20.82;9.73;;;;;;;;;;1737068;81;21012;-61
2022/08/30 14:05:42;;;;;;;22.73;8.90;;;;;;;;;;1735414;81;21028;-61
2022/08/30 14:08:12;;;;;;;15.75;8.70;;;;;;;;;;1739072;81;21025;-61
2022/08/30 14:10:40;;;;;;;21.23;9.15;;;;;;;;;;1745219;80;21079;-60
2022/08/30 14:13:10;;;;;;;17.45;10.93;;;;;;;;;;1722245;81;21507;-61
2022/08/30 14:15:38;;;;;;;26.52;13.00;;;;;;;;;;1737437;82;21575;-60
2022/08/30 14:18:07;;;;;;;22.58;12.37;;;;;;;;;;1734774;83;21005;-61
2022/08/30 14:20:34;;;;;;;29.23;12.13;;;;;;;;;;1735132;82;21469;-61
2022/08/30 14:23:01;;;;;;;21.37;12.13;;;;;;;;;;1735101;82;21351;-61
2022/08/30 14:25:28;;;;;;;19.45;10.82;;;;;;;;;;1741147;81;21047;-61
2022/08/30 14:27:56;;;;;;;26.27;10.70;;;;;;;;;;1746962;81;21745;-61
2022/08/30 14:30:24;;;;;;;20.90;10.82;;;;;;;;;;1737065;81;21067;-62
2022/08/30 14:32:51;;;;;;;18.82;10.38;;;;;;;;;;1746583;79;21185;-61
2022/08/30 14:35:19;;;;;;;16.50;10.28;;;;;;;;;;1739121;81;21040;-61
2022/08/30 14:37:46;;;;;;;24.82;11.25;;;;;;;;;;1738818;80;21032;-61
2022/08/30 14:40:14;;;;;;;19.62;10.23;;;;;;;;;;1739226;81;21068;-61
2022/08/30 14:42:41;;;;;;;24.70;11.63;;;;;;;;;;1741910;81;21547;-61
2022/08/30 14:45:09;;;;;;;29.00;14.98;;;;;;;;;;1741510;82;21116;-61
2022/08/30 14:47:37;;;;;;;29.90;12.07;;;;;;;;;;1747049;80;21496;-61
2022/08/30 14:50:05;;;;;;;25.20;11.33;;;;;;;;;;1744520;81;21118;-61
2022/08/30 14:52:33;;;;;;;23.15;11.00;;;;;;;;;;1734086;83;21131;-61
2022/08/30 14:55:01;;;;;;;24.47;11.75;;;;;;;;;;1734544;83;21036;-61
2022/08/30 14:57:28;;;;;;;20.82;11.63;;;;;;;;;;1738990;81;21165;-61
2022/08/30 14:59:55;;;;;;;22.62;11.50;;;;;;;;;;1740637;81;21086;-60
2022/08/30 15:02:22;;;;;;;26.45;10.80;;;;;;;;;;1742260;81;21096;-62
2022/08/30 15:04:50;;;;;;;17.90;10.48;;;;;;;;;;1745934;81;21086;-62